sensor_id;sensor_type;location;lat;lon;timestamp;P1;durP1;ratioP1;P2;durP2;ratioP2
4754;SDS011;2391;47.212;7.542;2022-07-23T04:48:07;20.17;;;10.93;;
4754;SDS011;2391;47.212;7.542;2022-07-23T04:50:32;13.67;;;10.90;;
4754;SDS011;2391;47.212;7.542;2022-07-23T04:52:59;12.17;;;10.90;;
4754;SDS011;2391;47.212;7.542;2022-07-23T04:55:25;14.13;;;10.73;;
4754;SDS011;2391;47.212;7.542;2022-07-23T04:57:51;15.90;;;10.83;;
4754;SDS011;2391;47.212;7.542;2022-07-23T05:00:17;15.33;;;11.00;;
4754;SDS011;2391;47.212;7.542;2022-07-23T05:02:43;14.53;;;11.10;;
4754;SDS011;2391;47.212;7.542;2022-07-23T05:05:09;15.10;;;11.23;;
4754;SDS011;2391;47.212;7.542;2022-07-23T05:07:35;11.90;;;10.77;;
4754;SDS011;2391;47.212;7.542;2022-07-23T05:10:01;15.50;;;10.83;;
4754;SDS011;2391;47.212;7.542;2022-07-23T05:12:26;18.40;;;10.97;;
4754;SDS011;2391;47.212;7.542;2022-07-23T05:14:52;11.90;;;10.43;;
4754;SDS011;2391;47.212;7.542;2022-07-23T05:17:18;11.40;;;10.20;;
4754;SDS011;2391;47.212;7.542;2022-07-23T05:19:44;12.87;;;10.80;;
4754;SDS011;2391;47.212;7.542;2022-07-23T05:22:10;17.70;;;11.70;;
4754;SDS011;2391;47.212;7.542;2022-07-23T05:24:36;15.67;;;11.27;;
4754;SDS011;2391;47.212;7.542;2022-07-23T05:27:02;22.30;;;12.30;;
4754;SDS011;2391;47.212;7.542;2022-07-23T05:29:28;13.13;;;10.70;;
4754;SDS011;2391;47.212;7.542;2022-07-23T05:31:54;18.33;;;10.87;;
4754;SDS011;2391;47.212;7.542;2022-07-23T05:34:20;12.80;;;10.67;;
4754;SDS011;2391;47.212;7.542;2022-07-23T05:36:46;17.13;;;11.23;;
4754;SDS011;2391;47.212;7.542;2022-07-23T05:39:12;15.13;;;12.03;;
4754;SDS011;2391;47.212;7.542;2022-07-23T05:41:38;17.87;;;11.63;;
4754;SDS011;2391;47.212;7.542;2022-07-23T05:44:04;12.80;;;9.63;;
4754;SDS011;2391;47.212;7.542;2022-07-23T05:46:30;15.80;;;11.40;;
4754;SDS011;2391;47.212;7.542;2022-07-23T05:48:56;13.80;;;11.73;;
4754;SDS011;2391;47.212;7.542;2022-07-23T05:51:22;19.17;;;11.23;;
4754;SDS011;2391;47.212;7.542;2022-07-23T05:53:49;11.90;;;10.70;;
4754;SDS011;2391;47.212;7.542;2022-07-23T05:56:15;13.77;;;11.10;;
4754;SDS011;2391;47.212;7.542;2022-07-23T05:58:42;15.13;;;10.53;;
4754;SDS011;2391;47.212;7.542;2022-07-23T06:01:08;12.13;;;10.00;;
4754;SDS011;2391;47.212;7.542;2022-07-23T06:03:34;13.20;;;11.37;;
4754;SDS011;2391;47.212;7.542;2022-07-23T06:06:00;12.30;;;11.00;;
4754;SDS011;2391;47.212;7.542;2022-07-23T06:08:26;12.50;;;11.10;;
4754;SDS011;2391;47.212;7.542;2022-07-23T06:10:52;12.20;;;10.67;;
4754;SDS011;2391;47.212;7.542;2022-07-23T06:13:18;13.93;;;10.90;;
4754;SDS011;2391;47.212;7.542;2022-07-23T06:15:44;15.03;;;10.73;;
4754;SDS011;2391;47.212;7.542;2022-07-23T06:18:10;15.03;;;11.20;;
4754;SDS011;2391;47.212;7.542;2022-07-23T06:20:36;14.37;;;11.50;;
4754;SDS011;2391;47.212;7.542;2022-07-23T06:23:03;13.17;;;10.57;;
4754;SDS011;2391;47.212;7.542;2022-07-23T06:25:29;14.83;;;11.00;;
4754;SDS011;2391;47.212;7.542;2022-07-23T06:27:55;13.87;;;10.70;;
4754;SDS011;2391;47.212;7.542;2022-07-23T06:30:21;15.47;;;11.37;;
4754;SDS011;2391;47.212;7.542;2022-07-23T06:32:47;14.77;;;12.07;;
4754;SDS011;2391;47.212;7.542;2022-07-23T06:35:14;12.90;;;11.60;;
4754;SDS011;2391;47.212;7.542;2022-07-23T06:37:40;14.17;;;11.20;;
4754;SDS011;2391;47.212;7.542;2022-07-23T06:40:06;14.80;;;10.40;;
4754;SDS011;2391;47.212;7.542;2022-07-23T06:42:33;16.90;;;11.23;;
4754;SDS011;2391;47.212;7.542;2022-07-23T06:44:59;12.30;;;10.40;;
4754;SDS011;2391;47.212;7.542;2022-07-23T06:47:25;15.73;;;10.70;;
4754;SDS011;2391;47.212;7.542;2022-07-23T06:49:51;15.33;;;10.77;;
4754;SDS011;2391;47.212;7.542;2022-07-23T06:52:17;15.53;;;11.07;;
4754;SDS011;2391;47.212;7.542;2022-07-23T06:54:43;15.87;;;10.90;;
4754;SDS011;2391;47.212;7.542;2022-07-23T06:57:08;11.73;;;10.43;;
4754;SDS011;2391;47.212;7.542;2022-07-23T06:59:34;12.60;;;10.90;;
4754;SDS011;2391;47.212;7.542;2022-07-23T07:02:02;14.73;;;10.87;;
4754;SDS011;2391;47.212;7.542;2022-07-23T07:04:28;14.50;;;11.87;;
4754;SDS011;2391;47.212;7.542;2022-07-23T07:06:54;18.87;;;12.30;;
4754;SDS011;2391;47.212;7.542;2022-07-23T07:09:20;14.73;;;11.87;;
4754;SDS011;2391;47.212;7.542;2022-07-23T07:11:46;13.73;;;12.13;;
4754;SDS011;2391;47.212;7.542;2022-07-23T07:14:12;18.43;;;12.20;;
4754;SDS011;2391;47.212;7.542;2022-07-23T07:16:38;18.53;;;13.53;;
4754;SDS011;2391;47.212;7.542;2022-07-23T07:19:04;15.53;;;12.60;;
4754;SDS011;2391;47.212;7.542;2022-07-23T07:21:29;17.30;;;12.43;;
4754;SDS011;2391;47.212;7.542;2022-07-23T07:23:55;15.43;;;12.20;;
4754;SDS011;2391;47.212;7.542;2022-07-23T07:26:21;15.40;;;12.33;;
4754;SDS011;2391;47.212;7.542;2022-07-23T07:28:47;14.50;;;12.93;;
4754;SDS011;2391;47.212;7.542;2022-07-23T07:31:13;14.93;;;11.83;;
4754;SDS011;2391;47.212;7.542;2022-07-23T07:33:39;14.90;;;11.97;;
4754;SDS011;2391;47.212;7.542;2022-07-23T07:36:05;14.43;;;12.20;;
4754;SDS011;2391;47.212;7.542;2022-07-23T07:38:31;16.37;;;13.33;;
4754;SDS011;2391;47.212;7.542;2022-07-23T07:40:57;12.80;;;11.20;;
4754;SDS011;2391;47.212;7.542;2022-07-23T07:43:23;15.73;;;12.50;;
4754;SDS011;2391;47.212;7.542;2022-07-23T07:45:49;12.77;;;11.43;;
4754;SDS011;2391;47.212;7.542;2022-07-23T07:48:14;13.13;;;11.70;;
4754;SDS011;2391;47.212;7.542;2022-07-23T07:50:40;13.07;;;11.73;;
4754;SDS011;2391;47.212;7.542;2022-07-23T07:53:06;16.73;;;12.50;;
4754;SDS011;2391;47.212;7.542;2022-07-23T07:55:32;16.63;;;13.07;;
4754;SDS011;2391;47.212;7.542;2022-07-23T07:58:09;14.13;;;12.63;;
4754;SDS011;2391;47.212;7.542;2022-07-23T08:00:35;14.00;;;12.60;;
4754;SDS011;2391;47.212;7.542;2022-07-23T08:03:01;15.77;;;12.80;;
4754;SDS011;2391;47.212;7.542;2022-07-23T08:05:28;12.40;;;11.20;;
4754;SDS011;2391;47.212;7.542;2022-07-23T08:07:56;14.93;;;11.50;;
4754;SDS011;2391;47.212;7.542;2022-07-23T08:10:23;12.70;;;11.50;;
4754;SDS011;2391;47.212;7.542;2022-07-23T08:12:52;13.17;;;11.33;;
4754;SDS011;2391;47.212;7.542;2022-07-23T08:15:22;14.47;;;11.97;;
4754;SDS011;2391;47.212;7.542;2022-07-23T08:17:48;12.30;;;11.10;;
4754;SDS011;2391;47.212;7.542;2022-07-23T08:20:17;14.03;;;10.93;;
4754;SDS011;2391;47.212;7.542;2022-07-23T08:25:25;14.80;;;11.50;;
4754;SDS011;2391;47.212;7.542;2022-07-23T08:27:55;13.23;;;10.70;;
4754;SDS011;2391;47.212;7.542;2022-07-23T08:30:22;12.70;;;11.20;;
4754;SDS011;2391;47.212;7.542;2022-07-23T08:32:58;12.17;;;10.13;;
4754;SDS011;2391;47.212;7.542;2022-07-23T08:35:34;12.43;;;10.10;;
4754;SDS011;2391;47.212;7.542;2022-07-23T08:38:02;11.10;;;10.00;;
4754;SDS011;2391;47.212;7.542;2022-07-23T08:40:30;12.20;;;10.77;;
4754;SDS011;2391;47.212;7.542;2022-07-23T08:42:58;11.20;;;9.30;;
4754;SDS011;2391;47.212;7.542;2022-07-23T08:45:26;11.57;;;10.43;;
4754;SDS011;2391;47.212;7.542;2022-07-23T08:47:55;10.53;;;9.43;;
4754;SDS011;2391;47.212;7.542;2022-07-23T08:50:24;11.77;;;10.57;;
4754;SDS011;2391;47.212;7.542;2022-07-23T08:52:51;12.63;;;10.40;;
4754;SDS011;2391;47.212;7.542;2022-07-23T08:55:20;11.13;;;9.93;;
4754;SDS011;2391;47.212;7.542;2022-07-23T08:57:48;11.97;;;10.00;;
4754;SDS011;2391;47.212;7.542;2022-07-23T09:00:16;10.73;;;9.63;;
4754;SDS011;2391;47.212;7.542;2022-07-23T09:02:44;16.03;;;11.50;;
4754;SDS011;2391;47.212;7.542;2022-07-23T09:05:11;13.13;;;10.90;;
4754;SDS011;2391;47.212;7.542;2022-07-23T09:07:38;14.10;;;10.87;;
4754;SDS011;2391;47.212;7.542;2022-07-23T09:10:24;12.90;;;10.90;;
4754;SDS011;2391;47.212;7.542;2022-07-23T09:12:50;12.10;;;10.90;;
4754;SDS011;2391;47.212;7.542;2022-07-23T09:15:16;15.70;;;11.20;;
4754;SDS011;2391;47.212;7.542;2022-07-23T09:17:42;14.33;;;11.43;;
4754;SDS011;2391;47.212;7.542;2022-07-23T09:20:12;13.10;;;11.70;;
4754;SDS011;2391;47.212;7.542;2022-07-23T09:22:46;15.33;;;12.33;;
4754;SDS011;2391;47.212;7.542;2022-07-23T09:25:14;13.20;;;10.60;;
4754;SDS011;2391;47.212;7.542;2022-07-23T09:27:52;12.43;;;11.20;;
4754;SDS011;2391;47.212;7.542;2022-07-23T09:30:24;12.43;;;11.07;;
4754;SDS011;2391;47.212;7.542;2022-07-23T09:38:18;19.17;;;10.03;;
4754;SDS011;2391;47.212;7.542;2022-07-23T09:40:45;11.73;;;10.53;;
4754;SDS011;2391;47.212;7.542;2022-07-23T09:43:12;12.83;;;10.60;;
4754;SDS011;2391;47.212;7.542;2022-07-23T09:45:40;12.33;;;11.03;;
4754;SDS011;2391;47.212;7.542;2022-07-23T09:48:09;13.53;;;10.53;;
4754;SDS011;2391;47.212;7.542;2022-07-23T09:50:36;10.83;;;9.67;;
4754;SDS011;2391;47.212;7.542;2022-07-23T09:53:02;11.33;;;9.83;;
4754;SDS011;2391;47.212;7.542;2022-07-23T09:55:32;11.93;;;10.57;;
4754;SDS011;2391;47.212;7.542;2022-07-23T09:58:04;17.50;;;11.20;;
4754;SDS011;2391;47.212;7.542;2022-07-23T10:00:32;12.57;;;10.80;;
4754;SDS011;2391;47.212;7.542;2022-07-23T10:02:59;18.43;;;12.00;;
4754;SDS011;2391;47.212;7.542;2022-07-23T10:05:25;14.57;;;12.07;;
4754;SDS011;2391;47.212;7.542;2022-07-23T10:07:51;13.43;;;12.03;;
4754;SDS011;2391;47.212;7.542;2022-07-23T10:10:18;14.13;;;11.23;;
4754;SDS011;2391;47.212;7.542;2022-07-23T10:12:46;14.80;;;11.33;;
4754;SDS011;2391;47.212;7.542;2022-07-23T10:15:17;14.60;;;12.40;;
4754;SDS011;2391;47.212;7.542;2022-07-23T10:17:43;13.53;;;11.67;;
4754;SDS011;2391;47.212;7.542;2022-07-23T10:20:09;13.33;;;11.30;;
4754;SDS011;2391;47.212;7.542;2022-07-23T10:22:39;16.33;;;12.70;;
4754;SDS011;2391;47.212;7.542;2022-07-23T10:30:30;10.20;;;8.97;;
4754;SDS011;2391;47.212;7.542;2022-07-23T10:33:14;10.73;;;9.63;;
4754;SDS011;2391;47.212;7.542;2022-07-23T10:35:53;12.00;;;10.80;;
4754;SDS011;2391;47.212;7.542;2022-07-23T10:38:28;12.57;;;11.23;;
4754;SDS011;2391;47.212;7.542;2022-07-23T10:41:02;12.37;;;11.07;;
4754;SDS011;2391;47.212;7.542;2022-07-23T10:43:30;11.57;;;10.37;;
4754;SDS011;2391;47.212;7.542;2022-07-23T10:46:20;11.10;;;9.17;;
4754;SDS011;2391;47.212;7.542;2022-07-23T10:48:43;13.30;;;9.77;;
4754;SDS011;2391;47.212;7.542;2022-07-23T10:51:10;10.60;;;9.33;;
4754;SDS011;2391;47.212;7.542;2022-07-23T10:53:57;9.53;;;8.67;;
4754;SDS011;2391;47.212;7.542;2022-07-23T10:56:48;10.67;;;9.47;;
4754;SDS011;2391;47.212;7.542;2022-07-23T10:59:03;12.50;;;9.60;;
4754;SDS011;2391;47.212;7.542;2022-07-23T11:01:33;9.37;;;8.50;;
4754;SDS011;2391;47.212;7.542;2022-07-23T11:04:02;9.30;;;8.30;;
4754;SDS011;2391;47.212;7.542;2022-07-23T11:14:59;10.20;;;8.50;;
4754;SDS011;2391;47.212;7.542;2022-07-23T11:27:55;8.97;;;7.93;;
4754;SDS011;2391;47.212;7.542;2022-07-23T11:35:38;8.97;;;7.53;;
4754;SDS011;2391;47.212;7.542;2022-07-23T11:38:06;9.53;;;7.93;;
4754;SDS011;2391;47.212;7.542;2022-07-23T11:40:34;9.07;;;7.87;;
4754;SDS011;2391;47.212;7.542;2022-07-23T11:43:02;9.70;;;7.43;;
4754;SDS011;2391;47.212;7.542;2022-07-23T11:45:37;8.67;;;7.30;;
4754;SDS011;2391;47.212;7.542;2022-07-23T11:48:05;8.70;;;7.03;;
4754;SDS011;2391;47.212;7.542;2022-07-23T11:50:32;6.83;;;6.20;;
4754;SDS011;2391;47.212;7.542;2022-07-23T11:52:59;9.10;;;7.30;;
4754;SDS011;2391;47.212;7.542;2022-07-23T11:55:25;9.63;;;7.20;;
4754;SDS011;2391;47.212;7.542;2022-07-23T11:57:53;8.50;;;7.20;;
4754;SDS011;2391;47.212;7.542;2022-07-23T12:00:24;8.57;;;7.60;;
4754;SDS011;2391;47.212;7.542;2022-07-23T12:02:52;9.07;;;8.10;;
4754;SDS011;2391;47.212;7.542;2022-07-23T12:05:21;9.23;;;7.50;;
4754;SDS011;2391;47.212;7.542;2022-07-23T12:07:49;8.77;;;7.83;;
4754;SDS011;2391;47.212;7.542;2022-07-23T12:10:18;9.90;;;7.90;;
4754;SDS011;2391;47.212;7.542;2022-07-23T12:12:52;8.97;;;8.17;;
4754;SDS011;2391;47.212;7.542;2022-07-23T12:15:22;8.47;;;7.67;;
4754;SDS011;2391;47.212;7.542;2022-07-23T12:17:49;8.23;;;7.33;;
4754;SDS011;2391;47.212;7.542;2022-07-23T12:20:21;8.27;;;7.47;;
4754;SDS011;2391;47.212;7.542;2022-07-23T12:22:50;8.43;;;7.50;;
4754;SDS011;2391;47.212;7.542;2022-07-23T12:25:20;7.93;;;7.23;;
4754;SDS011;2391;47.212;7.542;2022-07-23T12:27:57;9.20;;;8.30;;
4754;SDS011;2391;47.212;7.542;2022-07-23T12:30:27;7.90;;;6.57;;
4754;SDS011;2391;47.212;7.542;2022-07-23T12:32:56;9.87;;;7.60;;
4754;SDS011;2391;47.212;7.542;2022-07-23T12:35:28;8.30;;;7.60;;
4754;SDS011;2391;47.212;7.542;2022-07-23T12:38:00;8.87;;;7.83;;
4754;SDS011;2391;47.212;7.542;2022-07-23T12:40:29;9.47;;;7.47;;
4754;SDS011;2391;47.212;7.542;2022-07-23T12:43:07;8.07;;;7.27;;
4754;SDS011;2391;47.212;7.542;2022-07-23T12:48:17;11.20;;;7.03;;
4754;SDS011;2391;47.212;7.542;2022-07-23T12:55:59;7.10;;;6.43;;
4754;SDS011;2391;47.212;7.542;2022-07-23T12:58:38;9.60;;;8.60;;
4754;SDS011;2391;47.212;7.542;2022-07-23T13:00:59;9.63;;;7.83;;
4754;SDS011;2391;47.212;7.542;2022-07-23T13:03:34;8.97;;;8.03;;
4754;SDS011;2391;47.212;7.542;2022-07-23T13:06:06;8.20;;;7.40;;
4754;SDS011;2391;47.212;7.542;2022-07-23T13:08:37;9.73;;;7.97;;
4754;SDS011;2391;47.212;7.542;2022-07-23T13:11:05;10.23;;;8.70;;
4754;SDS011;2391;47.212;7.542;2022-07-23T13:13:33;10.40;;;7.67;;
4754;SDS011;2391;47.212;7.542;2022-07-23T13:16:01;8.80;;;7.97;;
4754;SDS011;2391;47.212;7.542;2022-07-23T13:18:27;10.30;;;8.30;;
4754;SDS011;2391;47.212;7.542;2022-07-23T13:20:54;9.13;;;8.23;;
4754;SDS011;2391;47.212;7.542;2022-07-23T13:23:20;9.17;;;8.20;;
4754;SDS011;2391;47.212;7.542;2022-07-23T13:25:47;8.47;;;7.67;;
4754;SDS011;2391;47.212;7.542;2022-07-23T13:28:14;8.00;;;7.30;;
4754;SDS011;2391;47.212;7.542;2022-07-23T13:30:41;9.90;;;8.00;;
4754;SDS011;2391;47.212;7.542;2022-07-23T13:33:08;8.40;;;7.60;;
4754;SDS011;2391;47.212;7.542;2022-07-23T13:35:35;9.30;;;7.60;;
4754;SDS011;2391;47.212;7.542;2022-07-23T13:38:02;9.73;;;8.10;;
4754;SDS011;2391;47.212;7.542;2022-07-23T13:40:29;7.53;;;6.93;;
4754;SDS011;2391;47.212;7.542;2022-07-23T13:42:55;10.07;;;7.87;;
4754;SDS011;2391;47.212;7.542;2022-07-23T13:45:21;8.63;;;7.73;;
4754;SDS011;2391;47.212;7.542;2022-07-23T13:47:47;7.53;;;6.90;;
4754;SDS011;2391;47.212;7.542;2022-07-23T13:50:13;7.93;;;6.93;;
4754;SDS011;2391;47.212;7.542;2022-07-23T13:52:41;7.50;;;6.90;;
4754;SDS011;2391;47.212;7.542;2022-07-23T13:55:08;8.70;;;7.90;;
4754;SDS011;2391;47.212;7.542;2022-07-23T13:57:34;7.67;;;7.07;;
4754;SDS011;2391;47.212;7.542;2022-07-23T14:00:00;7.83;;;7.03;;
4754;SDS011;2391;47.212;7.542;2022-07-23T14:02:28;7.47;;;6.77;;
4754;SDS011;2391;47.212;7.542;2022-07-23T14:04:54;8.80;;;7.27;;
4754;SDS011;2391;47.212;7.542;2022-07-23T14:07:20;10.70;;;7.20;;
4754;SDS011;2391;47.212;7.542;2022-07-23T14:09:46;7.93;;;7.30;;
4754;SDS011;2391;47.212;7.542;2022-07-23T14:12:12;9.13;;;7.07;;
4754;SDS011;2391;47.212;7.542;2022-07-23T14:14:38;8.20;;;7.47;;
4754;SDS011;2391;47.212;7.542;2022-07-23T14:17:04;7.63;;;6.87;;
4754;SDS011;2391;47.212;7.542;2022-07-23T14:19:30;8.27;;;7.47;;
4754;SDS011;2391;47.212;7.542;2022-07-23T14:21:56;7.97;;;7.20;;
4754;SDS011;2391;47.212;7.542;2022-07-23T14:24:22;7.43;;;6.73;;
4754;SDS011;2391;47.212;7.542;2022-07-23T14:26:48;7.90;;;7.20;;
4754;SDS011;2391;47.212;7.542;2022-07-23T14:29:14;8.00;;;7.30;;
4754;SDS011;2391;47.212;7.542;2022-07-23T14:31:40;7.73;;;7.03;;
4754;SDS011;2391;47.212;7.542;2022-07-23T14:34:06;7.53;;;6.90;;
4754;SDS011;2391;47.212;7.542;2022-07-23T14:36:32;8.50;;;7.10;;
4754;SDS011;2391;47.212;7.542;2022-07-23T14:38:58;8.00;;;7.30;;
4754;SDS011;2391;47.212;7.542;2022-07-23T14:41:25;10.90;;;7.23;;
4754;SDS011;2391;47.212;7.542;2022-07-23T14:43:51;8.37;;;7.43;;
4754;SDS011;2391;47.212;7.542;2022-07-23T14:46:17;8.47;;;7.60;;
4754;SDS011;2391;47.212;7.542;2022-07-23T14:48:43;8.53;;;7.10;;
4754;SDS011;2391;47.212;7.542;2022-07-23T14:51:09;7.93;;;7.20;;
4754;SDS011;2391;47.212;7.542;2022-07-23T14:53:35;7.60;;;6.83;;
4754;SDS011;2391;47.212;7.542;2022-07-23T14:56:01;9.20;;;7.40;;
4754;SDS011;2391;47.212;7.542;2022-07-23T14:58:28;8.97;;;7.77;;
4754;SDS011;2391;47.212;7.542;2022-07-23T15:00:55;11.90;;;8.03;;
4754;SDS011;2391;47.212;7.542;2022-07-23T15:03:21;7.90;;;7.13;;
4754;SDS011;2391;47.212;7.542;2022-07-23T15:05:46;7.90;;;7.20;;
4754;SDS011;2391;47.212;7.542;2022-07-23T15:08:12;7.80;;;7.10;;
4754;SDS011;2391;47.212;7.542;2022-07-23T15:10:38;7.97;;;7.23;;
4754;SDS011;2391;47.212;7.542;2022-07-23T15:13:04;7.60;;;7.00;;
4754;SDS011;2391;47.212;7.542;2022-07-23T15:15:30;8.87;;;7.20;;
4754;SDS011;2391;47.212;7.542;2022-07-23T15:17:56;7.50;;;6.80;;
4754;SDS011;2391;47.212;7.542;2022-07-23T15:20:23;7.97;;;7.17;;
4754;SDS011;2391;47.212;7.542;2022-07-23T15:22:48;8.10;;;7.40;;
4754;SDS011;2391;47.212;7.542;2022-07-23T15:25:14;9.83;;;7.07;;
4754;SDS011;2391;47.212;7.542;2022-07-23T15:27:41;7.43;;;6.83;;
4754;SDS011;2391;47.212;7.542;2022-07-23T15:30:07;7.27;;;6.47;;
4754;SDS011;2391;47.212;7.542;2022-07-23T15:32:34;7.63;;;6.93;;
4754;SDS011;2391;47.212;7.542;2022-07-23T15:35:00;7.80;;;5.93;;
4754;SDS011;2391;47.212;7.542;2022-07-23T15:37:26;7.30;;;6.60;;
4754;SDS011;2391;47.212;7.542;2022-07-23T15:39:52;7.33;;;6.73;;
4754;SDS011;2391;47.212;7.542;2022-07-23T15:42:18;8.20;;;6.57;;
4754;SDS011;2391;47.212;7.542;2022-07-23T15:44:44;6.90;;;6.30;;
4754;SDS011;2391;47.212;7.542;2022-07-23T15:47:11;7.73;;;6.87;;
4754;SDS011;2391;47.212;7.542;2022-07-23T15:49:39;6.67;;;6.07;;
4754;SDS011;2391;47.212;7.542;2022-07-23T15:52:05;8.10;;;6.70;;
4754;SDS011;2391;47.212;7.542;2022-07-23T15:54:31;6.93;;;6.10;;
4754;SDS011;2391;47.212;7.542;2022-07-23T15:56:57;6.90;;;5.97;;
4754;SDS011;2391;47.212;7.542;2022-07-23T15:59:23;7.60;;;6.47;;
4754;SDS011;2391;47.212;7.542;2022-07-23T16:01:49;6.20;;;5.70;;
4754;SDS011;2391;47.212;7.542;2022-07-23T16:04:15;9.50;;;5.83;;
4754;SDS011;2391;47.212;7.542;2022-07-23T16:06:41;5.70;;;5.20;;
4754;SDS011;2391;47.212;7.542;2022-07-23T16:09:07;5.70;;;5.23;;
4754;SDS011;2391;47.212;7.542;2022-07-23T16:11:34;6.00;;;4.90;;
4754;SDS011;2391;47.212;7.542;2022-07-23T16:14:00;5.40;;;4.90;;
4754;SDS011;2391;47.212;7.542;2022-07-23T16:16:26;5.17;;;4.87;;
4754;SDS011;2391;47.212;7.542;2022-07-23T16:18:55;5.50;;;5.00;;
4754;SDS011;2391;47.212;7.542;2022-07-23T16:21:22;8.37;;;5.43;;
4754;SDS011;2391;47.212;7.542;2022-07-23T16:23:49;7.77;;;5.87;;
4754;SDS011;2391;47.212;7.542;2022-07-23T16:26:15;6.23;;;5.60;;
4754;SDS011;2391;47.212;7.542;2022-07-23T16:28:43;6.70;;;5.20;;
4754;SDS011;2391;47.212;7.542;2022-07-23T16:31:09;6.00;;;5.17;;
4754;SDS011;2391;47.212;7.542;2022-07-23T16:33:36;5.67;;;5.27;;
4754;SDS011;2391;47.212;7.542;2022-07-23T16:36:03;6.00;;;5.43;;
4754;SDS011;2391;47.212;7.542;2022-07-23T16:38:30;5.40;;;4.90;;
4754;SDS011;2391;47.212;7.542;2022-07-23T16:40:56;5.77;;;5.27;;
4754;SDS011;2391;47.212;7.542;2022-07-23T16:43:22;8.50;;;5.80;;
4754;SDS011;2391;47.212;7.542;2022-07-23T16:45:48;8.87;;;5.10;;
4754;SDS011;2391;47.212;7.542;2022-07-23T16:48:14;9.33;;;5.43;;
4754;SDS011;2391;47.212;7.542;2022-07-23T16:50:40;6.97;;;5.97;;
4754;SDS011;2391;47.212;7.542;2022-07-23T16:53:06;10.13;;;6.23;;
4754;SDS011;2391;47.212;7.542;2022-07-23T16:55:32;5.70;;;5.30;;
4754;SDS011;2391;47.212;7.542;2022-07-23T16:57:58;5.27;;;4.87;;
4754;SDS011;2391;47.212;7.542;2022-07-23T17:00:25;5.47;;;4.97;;
4754;SDS011;2391;47.212;7.542;2022-07-23T17:02:51;7.47;;;4.83;;
4754;SDS011;2391;47.212;7.542;2022-07-23T17:05:17;5.43;;;5.03;;
4754;SDS011;2391;47.212;7.542;2022-07-23T17:07:43;5.57;;;5.00;;
4754;SDS011;2391;47.212;7.542;2022-07-23T17:10:09;6.23;;;5.63;;
4754;SDS011;2391;47.212;7.542;2022-07-23T17:12:36;9.60;;;4.70;;
4754;SDS011;2391;47.212;7.542;2022-07-23T17:15:03;6.60;;;5.60;;
4754;SDS011;2391;47.212;7.542;2022-07-23T17:17:30;5.30;;;4.80;;
4754;SDS011;2391;47.212;7.542;2022-07-23T17:19:56;6.37;;;5.47;;
4754;SDS011;2391;47.212;7.542;2022-07-23T17:22:22;6.53;;;5.87;;
4754;SDS011;2391;47.212;7.542;2022-07-23T17:24:48;6.90;;;5.40;;
4754;SDS011;2391;47.212;7.542;2022-07-23T17:27:14;5.30;;;4.83;;
4754;SDS011;2391;47.212;7.542;2022-07-23T17:29:40;7.30;;;5.30;;
4754;SDS011;2391;47.212;7.542;2022-07-23T17:32:06;6.10;;;5.50;;
4754;SDS011;2391;47.212;7.542;2022-07-23T17:34:32;6.03;;;5.47;;
4754;SDS011;2391;47.212;7.542;2022-07-23T17:36:58;7.50;;;4.63;;
4754;SDS011;2391;47.212;7.542;2022-07-23T17:39:24;5.60;;;5.10;;
4754;SDS011;2391;47.212;7.542;2022-07-23T17:41:50;8.77;;;5.00;;
4754;SDS011;2391;47.212;7.542;2022-07-23T17:44:16;5.20;;;4.90;;
4754;SDS011;2391;47.212;7.542;2022-07-23T17:46:43;8.77;;;5.37;;
4754;SDS011;2391;47.212;7.542;2022-07-23T17:49:09;6.90;;;5.47;;
4754;SDS011;2391;47.212;7.542;2022-07-23T17:51:35;7.27;;;5.37;;
4754;SDS011;2391;47.212;7.542;2022-07-23T17:54:02;6.10;;;5.50;;
4754;SDS011;2391;47.212;7.542;2022-07-23T17:56:28;9.40;;;5.40;;
4754;SDS011;2391;47.212;7.542;2022-07-23T17:58:54;6.13;;;5.30;;
4754;SDS011;2391;47.212;7.542;2022-07-23T18:01:21;5.93;;;5.20;;
4754;SDS011;2391;47.212;7.542;2022-07-23T18:03:47;6.33;;;5.17;;
4754;SDS011;2391;47.212;7.542;2022-07-23T18:06:15;5.77;;;5.30;;
4754;SDS011;2391;47.212;7.542;2022-07-23T18:08:41;5.97;;;5.07;;
4754;SDS011;2391;47.212;7.542;2022-07-23T18:11:07;5.37;;;4.87;;
4754;SDS011;2391;47.212;7.542;2022-07-23T18:13:33;9.53;;;5.37;;
4754;SDS011;2391;47.212;7.542;2022-07-23T18:15:59;5.80;;;5.30;;
4754;SDS011;2391;47.212;7.542;2022-07-23T18:18:26;8.37;;;5.40;;
4754;SDS011;2391;47.212;7.542;2022-07-23T18:20:53;5.73;;;5.23;;
4754;SDS011;2391;47.212;7.542;2022-07-23T18:23:19;7.03;;;5.47;;
4754;SDS011;2391;47.212;7.542;2022-07-23T18:25:45;5.77;;;5.27;;
4754;SDS011;2391;47.212;7.542;2022-07-23T18:28:12;5.80;;;5.30;;
4754;SDS011;2391;47.212;7.542;2022-07-23T18:30:37;6.23;;;5.10;;
4754;SDS011;2391;47.212;7.542;2022-07-23T18:33:04;9.90;;;5.27;;
4754;SDS011;2391;47.212;7.542;2022-07-23T18:35:29;10.37;;;5.50;;
4754;SDS011;2391;47.212;7.542;2022-07-23T18:37:56;5.90;;;5.30;;
4754;SDS011;2391;47.212;7.542;2022-07-23T18:40:21;5.90;;;5.40;;
4754;SDS011;2391;47.212;7.542;2022-07-23T18:42:47;7.00;;;6.13;;
4754;SDS011;2391;47.212;7.542;2022-07-23T18:45:14;7.13;;;5.90;;
4754;SDS011;2391;47.212;7.542;2022-07-23T18:47:40;6.73;;;5.10;;
4754;SDS011;2391;47.212;7.542;2022-07-23T18:50:07;6.03;;;5.53;;
4754;SDS011;2391;47.212;7.542;2022-07-23T18:52:35;5.30;;;5.00;;
4754;SDS011;2391;47.212;7.542;2022-07-23T18:55:02;9.27;;;5.60;;
4754;SDS011;2391;47.212;7.542;2022-07-23T18:57:29;9.07;;;6.47;;
4754;SDS011;2391;47.212;7.542;2022-07-23T18:59:55;9.03;;;5.67;;
4754;SDS011;2391;47.212;7.542;2022-07-23T19:02:21;6.17;;;5.37;;
4754;SDS011;2391;47.212;7.542;2022-07-23T19:04:47;11.40;;;6.83;;
4754;SDS011;2391;47.212;7.542;2022-07-23T19:07:13;6.00;;;5.50;;
4754;SDS011;2391;47.212;7.542;2022-07-23T19:09:39;9.23;;;6.50;;
4754;SDS011;2391;47.212;7.542;2022-07-23T19:12:05;6.47;;;5.93;;
4754;SDS011;2391;47.212;7.542;2022-07-23T19:14:31;7.03;;;6.33;;
4754;SDS011;2391;47.212;7.542;2022-07-23T19:16:57;8.50;;;6.37;;
4754;SDS011;2391;47.212;7.542;2022-07-23T19:19:23;6.57;;;5.97;;
4754;SDS011;2391;47.212;7.542;2022-07-23T19:21:49;7.67;;;6.53;;
4754;SDS011;2391;47.212;7.542;2022-07-23T19:24:15;6.63;;;6.03;;
4754;SDS011;2391;47.212;7.542;2022-07-23T19:26:41;5.80;;;5.30;;
4754;SDS011;2391;47.212;7.542;2022-07-23T19:29:07;6.87;;;6.20;;
4754;SDS011;2391;47.212;7.542;2022-07-23T19:31:34;9.50;;;7.00;;
4754;SDS011;2391;47.212;7.542;2022-07-23T19:34:00;9.80;;;6.17;;
4754;SDS011;2391;47.212;7.542;2022-07-23T19:36:26;10.00;;;6.30;;
4754;SDS011;2391;47.212;7.542;2022-07-23T19:38:52;5.77;;;5.30;;
4754;SDS011;2391;47.212;7.542;2022-07-23T19:41:18;5.70;;;5.30;;
4754;SDS011;2391;47.212;7.542;2022-07-23T19:43:44;10.03;;;6.07;;
4754;SDS011;2391;47.212;7.542;2022-07-23T19:46:10;6.27;;;5.80;;
4754;SDS011;2391;47.212;7.542;2022-07-23T19:48:36;6.20;;;5.73;;
4754;SDS011;2391;47.212;7.542;2022-07-23T19:51:02;6.67;;;5.63;;
4754;SDS011;2391;47.212;7.542;2022-07-23T19:53:28;7.10;;;6.30;;
4754;SDS011;2391;47.212;7.542;2022-07-23T19:55:54;6.17;;;5.47;;
4754;SDS011;2391;47.212;7.542;2022-07-23T19:58:20;8.43;;;5.53;;
4754;SDS011;2391;47.212;7.542;2022-07-23T20:00:46;6.03;;;5.53;;
4754;SDS011;2391;47.212;7.542;2022-07-23T20:03:12;8.40;;;6.40;;
4754;SDS011;2391;47.212;7.542;2022-07-23T20:05:38;6.47;;;5.87;;
4754;SDS011;2391;47.212;7.542;2022-07-23T20:08:05;6.30;;;5.70;;
4754;SDS011;2391;47.212;7.542;2022-07-23T20:10:31;7.30;;;5.97;;
4754;SDS011;2391;47.212;7.542;2022-07-23T20:12:57;8.20;;;6.00;;
4754;SDS011;2391;47.212;7.542;2022-07-23T20:15:23;8.60;;;5.90;;
4754;SDS011;2391;47.212;7.542;2022-07-23T20:17:49;10.20;;;6.13;;
4754;SDS011;2391;47.212;7.542;2022-07-23T20:20:15;8.00;;;6.03;;
4754;SDS011;2391;47.212;7.542;2022-07-23T20:22:41;7.77;;;6.77;;
4754;SDS011;2391;47.212;7.542;2022-07-23T20:25:07;7.10;;;6.37;;
4754;SDS011;2391;47.212;7.542;2022-07-23T20:27:33;8.60;;;6.67;;
4754;SDS011;2391;47.212;7.542;2022-07-23T20:29:59;7.67;;;6.57;;
4754;SDS011;2391;47.212;7.542;2022-07-23T20:32:25;8.17;;;7.07;;
4754;SDS011;2391;47.212;7.542;2022-07-23T20:34:51;6.73;;;6.03;;
4754;SDS011;2391;47.212;7.542;2022-07-23T20:37:17;7.03;;;6.33;;